Adobe Reservoir




Date 2017 Battery Voltage (V) 2017 Panel Temperature (degF) 2017 Reservoir Height (ft) 2017 Reservoir Acre Feet (AF) 2017 Blue Cut-Clipper-Western Meter (cfs) 2017 Hunter Plant Meter (cfs) 2017 Air Temperature (degF) 2017 Blue Cut-Clipper-Western Meter GPM (gpm) 2017 Hunter Plant Meter GPM (gpm) 2017 Reservoir Elevation (ft) 2017 Battery Voltage 24 (V) 2017 Hunter Plant Meter Total Gallons (gal) 2017 Pond Battery Voltage (V) 2017 Pond 24V Battery Voltage (V) 2017 Pipe PSI (PSI) 2017 K Gallons Total (gal) 2017 Signal Strength (db) 2017 Call Fails (ea) 2017 Total Fails (ea) 2017 Tries (ea) 2017 Water Level Sensor 2017 Upper Mammoth Meter (gpm) 2017 Upper Mammoth Meter (cfs)
12/01/2017 12.3 13.5 95.9 1,013 0.0 17.5 45 0 7,840 5,995.9 28.3 12.2 26.3 26.0 6,363,670.00 0.00 0.00 0.00
12/02/2017 12.3 13.4 95.9 1,014 0.0 17.9 45 0 8,020 5,995.9 28.2 12.2 26.4 26.0 6,375,429.00 0.00 0.00 0.00
12/03/2017 12.3 12.4 96.0 1,024 0.0 14.1 45 0 6,322 5,996.0 28.2 12.2 25.9 26.1 6,384,751.00 0.00 0.00 0.00
12/04/2017 12.3 10.3 96.2 1,035 0.0 14.0 43 0 6,299 5,996.2 28.2 12.2 26.5 26.1 6,394,057.00 0.00 0.00 0.00
12/05/2017 12.3 10.0 96.3 1,046 0.0 14.1 43 0 6,317 5,996.3 28.2 12.2 26.6 26.2 6,403,412.00 0.00 0.00 0.00
12/06/2017 12.3 10.9 96.5 1,059 0.0 14.0 42 0 6,303 5,996.5 28.2 12.2 26.5 26.3 6,412,746.00 0.00 0.00 0.00
12/07/2017 12.3 10.6 96.6 1,069 0.0 14.1 42 0 6,311 5,996.6 28.2 12.2 26.5 26.3 6,422,093.00 0.00 0.00 0.00
12/08/2017 12.3 11.0 96.7 1,079 0.0 14.1 42 0 6,324 5,996.7 28.2 12.2 26.5 26.4 6,431,449.00 0.00 0.00 0.00
12/09/2017 12.3 11.3 96.9 1,094 0.0 14.1 42 0 6,323 5,996.9 28.2 12.2 26.5 26.5 6,440,804.00 0.00 0.00 0.00
12/10/2017 12.3 11.2 97.0 1,104 0.0 14.1 42 0 6,325 5,997.0 28.2 12.2 26.5 26.5 6,450,161.00 0.00 0.00 0.00
12/11/2017 12.3 11.2 97.1 1,107 0.0 14.1 42 0 6,322 5,997.1 28.2 12.2 26.5 26.5 6,459,518.00 0.00 0.00 0.00
12/12/2017 12.3 11.9 97.1 1,111 0.0 14.6 42 0 6,536 5,997.1 28.2 12.2 26.5 26.5 6,469,161.00 0.00 0.00 0.00
12/13/2017 12.3 10.8 97.1 1,106 0.0 18.1 42 0 8,124 5,997.1 28.2 12.2 26.0 26.5 6,481,095.00 0.00 0.00 0.00
12/14/2017 12.3 11.6 97.0 1,104 0.0 17.0 42 0 7,630 5,997.0 28.5 12.2 26.3 26.5 6,492,309.00 0.00 0.00 0.00
12/15/2017 12.3 11.3 97.2 1,119 0.0 17.1 42 0 7,653 5,997.2 28.2 12.2 26.5 26.5 6,503,556.00 0.00 0.00 0.00
12/16/2017 12.3 9.9 97.5 1,144 0.0 17.1 42 0 7,683 5,997.5 28.3 12.2 25.8 26.7 6,514,862.00 0.00 0.00 0.00
12/17/2017 12.3 10.3 97.6 1,146 0.0 21.9 42 0 9,813 5,997.6 28.2 12.2 26.3 26.6 6,529,195.00 0.00 0.00 0.00
12/18/2017 12.3 10.6 97.4 1,136 0.0 22.3 42 0 9,991 5,997.4 28.2 12.2 26.3 26.6 6,543,783.00 0.00 0.00 0.00
12/19/2017 12.3 10.9 97.3 1,125 0.0 21.1 42 0 9,459 5,997.3 28.2 12.2 26.4 26.5 6,557,623.00 0.00 0.00 0.00
12/20/2017 12.3 10.4 97.2 1,114 0.0 19.7 42 0 8,853 5,997.2 28.1 12.2 25.7 26.5 6,570,601.00 0.00 0.00 0.00
12/21/2017 12.3 8.1 97.0 1,103 0.0 20.7 41 0 9,285 5,997.0 27.9 12.2 25.1 26.4 6,584,204.00 0.00 0.00 0.00
12/22/2017 12.3 7.9 97.0 1,100 0.0 19.8 41 0 8,868 5,997.0 28.2 12.2 26.2 26.4 6,597,207.00 0.00 0.00 0.00
12/23/2017 12.3 9.7 96.9 1,095 0.0 21.4 41 0 9,603 5,996.9 28.0 12.2 25.7 26.3 6,611,264.00 0.00 0.00 0.00
12/24/2017 12.3 12.3 96.8 1,088 0.0 23.5 43 0 10,554 5,996.8 28.1 12.2 25.6 26.3 6,626,675.00 0.00 0.00 0.00
12/25/2017 12.3 13.3 96.7 1,076 0.0 23.5 43 0 10,525 5,996.7 28.2 12.2 26.1 26.2 6,642,041.00 0.00 0.00 0.00
12/26/2017 12.3 14.1 96.5 1,063 0.5 24.0 43 210 10,756 5,996.5 28.2 12.2 26.3 26.1 6,657,730.00 0.00 0.00 0.00
12/27/2017 12.3 14.6 96.4 1,052 0.8 22.7 44 366 10,196 5,996.4 28.2 12.2 26.4 26.1 6,672,616.00 0.00 0.00 0.00
12/28/2017 12.3 14.6 96.3 1,046 0.7 21.3 44 329 9,569 5,996.3 28.2 12.2 26.4 26.1 6,686,580.00 0.00 0.00 0.00
12/29/2017 12.3 14.6 96.2 1,041 0.7 19.1 44 335 8,551 5,996.2 28.2 12.2 26.4 26.1 6,699,077.00 0.00 0.00 0.00
12/30/2017 12.3 14.3 96.3 1,047 1.1 16.2 44 502 7,261 5,996.3 28.2 12.2 26.3 26.2 6,709,722.00 0.00 0.00 0.00
12/31/2017 12.3 13.9 96.4 1,051 1.2 17.2 44 558 7,718 5,996.4 28.1 12.2 25.8 26.2 6,721,019.00 0.00 0.00 0.00
Average 0.2 18.1 0.00
Maximum 1.2 24.0 0.00
Minimum 0.0 14.0 0.00
Total Volume (AF) 9.9 1,111.3 0.00